Time;durP1;ratioP1;P1;durP2;ratioP2;P2;SDS_P1;SDS_P2;PMS_P1;PMS_P2;Temp;Humidity;BMP_temperature;BMP_pressure;BME280_temperature;BME280_humidity;BME280_pressure;Samples;Min_cycle;Max_cycle;Signal;HPM_P1;HPM_P2
2022/02/20 00:08:05;;;;;;;;;93.00;90.00;;;;;;;;2;288082380;288082380;-77
2022/02/20 00:16:20;;;;;;;;;101.50;101.50;;;;;;;;2;261074996;261074996;-77
2022/02/20 00:25:48;;;;;;;;;87.00;87.00;;;;;;;;2;288082225;288082225;-78
2022/02/20 00:34:03;;;;;;;;;104.00;104.00;;;;;;;;2;261075770;261075770;-78
2022/02/20 00:46:50;;;;;;;;;98.00;98.00;;;;;;;;2;288084662;288084662;-78
2022/02/20 00:55:06;;;;;;;;;104.00;104.00;;;;;;;;2;261076857;261076857;-78
2022/02/20 01:04:34;;;;;;;;;93.00;91.00;;;;;;;;2;288084218;288084218;-78
2022/02/20 01:12:50;;;;;;;;;92.50;91.00;;;;;;;;2;261077649;261077649;-77
2022/02/20 01:22:18;;;;;;;;;112.00;112.00;;;;;;;;2;288082729;288082729;-78
2022/02/20 01:30:33;;;;;;;;;90.50;87.50;;;;;;;;2;261078517;261078517;-77
2022/02/20 01:40:01;;;;;;;;;106.50;106.50;;;;;;;;2;288085573;288085573;-76
2022/02/20 01:48:16;;;;;;;;;75.50;69.50;;;;;;;;2;261078099;261078099;-76
2022/02/20 01:57:45;;;;;;;;;77.00;71.50;;;;;;;;2;288083375;288083375;-76
2022/02/20 02:06:01;;;;;;;;;78.50;73.00;;;;;;;;2;261078979;261078979;-76
2022/02/20 02:15:28;;;;;;;;;53.00;53.00;;;;;;;;2;288085150;288085150;-76
2022/02/20 02:23:44;;;;;;;;;36.00;32.50;;;;;;;;2;261075007;261075007;-76
2022/02/20 02:33:11;;;;;;;;;37.00;32.50;;;;;;;;2;288079797;288079797;-76
2022/02/20 02:41:27;;;;;;;;;39.50;35.50;;;;;;;;2;261078587;261078587;-76
2022/02/20 02:50:55;;;;;;;;;37.00;34.00;;;;;;;;2;288083716;288083716;-76
2022/02/20 02:59:11;;;;;;;;;74.50;69.50;;;;;;;;2;261075854;261075854;-75
2022/02/20 03:08:38;;;;;;;;;90.00;86.00;;;;;;;;2;288084533;288084533;-76
2022/02/20 03:16:54;;;;;;;;;69.50;65.50;;;;;;;;2;261079867;261079867;-76
2022/02/20 03:26:21;;;;;;;;;35.00;30.50;;;;;;;;2;288082697;288082697;-76
2022/02/20 03:34:37;;;;;;;;;34.00;29.50;;;;;;;;2;261074783;261074783;-76
2022/02/20 03:44:04;;;;;;;;;36.50;33.50;;;;;;;;2;288083609;288083609;-76
2022/02/20 03:52:20;;;;;;;;;0.00;0.00;;;;;;;;2;261075660;261075660;-76
2022/02/20 04:01:47;;;;;;;;;0.00;0.00;;;;;;;;2;288084391;288084391;-76
2022/02/20 04:10:04;;;;;;;;;0.00;0.00;;;;;;;;2;261074443;261074443;-76
2022/02/20 04:19:31;;;;;;;;;0.00;0.00;;;;;;;;2;288085376;288085376;-76
2022/02/20 04:27:47;;;;;;;;;0.00;0.00;;;;;;;;2;261075537;261075537;-76
2022/02/20 04:37:14;;;;;;;;;0.00;0.00;;;;;;;;2;288085292;288085292;-76
2022/02/20 04:45:30;;;;;;;;;0.00;0.00;;;;;;;;2;261076734;261076734;-76
2022/02/20 04:54:57;;;;;;;;;0.00;0.00;;;;;;;;2;288084089;288084089;-76
2022/02/20 05:03:13;;;;;;;;;0.00;0.00;;;;;;;;2;261076443;261076443;-76
2022/02/20 05:12:40;;;;;;;;;0.00;0.00;;;;;;;;2;288081297;288081297;-76
2022/02/20 05:20:56;;;;;;;;;0.00;0.00;;;;;;;;2;261077357;261077357;-76
2022/02/20 05:30:23;;;;;;;;;0.00;0.00;;;;;;;;2;288084819;288084819;-76
2022/02/20 05:38:38;;;;;;;;;0.00;0.00;;;;;;;;2;261076173;261076173;-76
2022/02/20 05:48:06;;;;;;;;;0.00;0.00;;;;;;;;2;288082942;288082942;-76
2022/02/20 05:56:22;;;;;;;;;0.00;0.00;;;;;;;;2;261077170;261077170;-76
2022/02/20 06:05:49;;;;;;;;;0.00;0.00;;;;;;;;2;288087469;288087469;-76
2022/02/20 06:14:05;;;;;;;;;0.00;0.00;;;;;;;;2;261075307;261075307;-76
2022/02/20 06:23:32;;;;;;;;;0.00;0.00;;;;;;;;2;288082509;288082509;-76
2022/02/20 06:31:48;;;;;;;;;0.00;0.00;;;;;;;;2;261076564;261076564;-76
2022/02/20 06:41:15;;;;;;;;;0.00;0.00;;;;;;;;2;288081560;288081560;-76
2022/02/20 06:49:31;;;;;;;;;0.00;0.00;;;;;;;;2;261078172;261078172;-76
2022/02/20 06:58:58;;;;;;;;;0.00;0.00;;;;;;;;2;288082146;288082146;-76
2022/02/20 07:07:14;;;;;;;;;0.00;0.00;;;;;;;;2;261075492;261075492;-76
2022/02/20 07:16:42;;;;;;;;;0.00;0.00;;;;;;;;2;288083578;288083578;-76
2022/02/20 07:24:57;;;;;;;;;0.00;0.00;;;;;;;;2;261078655;261078655;-76
2022/02/20 07:34:25;;;;;;;;;0.00;0.00;;;;;;;;2;288084697;288084697;-76
2022/02/20 07:42:41;;;;;;;;;0.00;0.00;;;;;;;;2;261075917;261075917;-76
2022/02/20 07:52:08;;;;;;;;;0.00;0.00;;;;;;;;2;288084110;288084110;-75
2022/02/20 08:00:28;;;;;;;;;0.00;0.00;;;;;;;;2;261075861;261075861;-75
2022/02/20 08:09:55;;;;;;;;;0.00;0.00;;;;;;;;2;288082491;288082491;-75
2022/02/20 08:18:11;;;;;;;;;0.00;0.00;;;;;;;;2;261074909;261074909;-76
2022/02/20 08:27:38;;;;;;;;;0.00;0.00;;;;;;;;2;288085985;288085985;-76
2022/02/20 08:35:54;;;;;;;;;0.00;0.00;;;;;;;;2;261075967;261075967;-76
2022/02/20 08:45:21;;;;;;;;;0.00;0.00;;;;;;;;2;288085181;288085181;-76
2022/02/20 08:53:38;;;;;;;;;0.00;0.00;;;;;;;;2;261082142;261082142;-76
2022/02/20 09:03:05;;;;;;;;;0.00;0.00;;;;;;;;2;288086808;288086808;-76
2022/02/20 09:11:21;;;;;;;;;0.00;0.00;;;;;;;;2;261079318;261079318;-76
2022/02/20 09:20:48;;;;;;;;;0.00;0.00;;;;;;;;2;288086151;288086151;-77
2022/02/20 09:29:04;;;;;;;;;0.00;0.00;;;;;;;;2;261077252;261077252;-78
2022/02/20 09:38:31;;;;;;;;;0.00;0.00;;;;;;;;2;288084694;288084694;-77
2022/02/20 09:46:47;;;;;;;;;0.00;0.00;;;;;;;;2;261075169;261075169;-77
2022/02/20 09:56:14;;;;;;;;;0.00;0.00;;;;;;;;2;288084800;288084800;-78
2022/02/20 10:04:45;;;;;;;;;0.00;0.00;;;;;;;;2;261083344;261083344;-78
2022/02/20 10:14:14;;;;;;;;;0.00;0.00;;;;;;;;2;288085986;288085986;-78
2022/02/20 10:22:34;;;;;;;;;0.00;0.00;;;;;;;;2;261076794;261076794;-78
2022/02/20 10:32:03;;;;;;;;;0.00;0.00;;;;;;;;2;288085288;288085288;-78
2022/02/20 10:40:23;;;;;;;;;0.00;0.00;;;;;;;;2;261076177;261076177;-79
2022/02/20 10:49:51;;;;;;;;;0.00;0.00;;;;;;;;2;288086552;288086552;-77
2022/02/20 10:58:09;;;;;;;;;0.00;0.00;;;;;;;;2;261077960;261077960;-77
2022/02/20 11:07:39;;;;;;;;;0.00;0.00;;;;;;;;2;288089927;288089927;-76
2022/02/20 11:15:55;;;;;;;;;0.00;0.00;;;;;;;;2;261079158;261079158;-78
2022/02/20 11:25:24;;;;;;;;;0.00;0.00;;;;;;;;2;288082895;288082895;-77
2022/02/20 11:33:39;;;;;;;;;0.00;0.00;;;;;;;;2;261077811;261077811;-78
2022/02/20 11:43:08;;;;;;;;;0.00;0.00;;;;;;;;2;288092522;288092522;-77
2022/02/20 11:51:25;;;;;;;;;0.00;0.00;;;;;;;;2;261076828;261076828;-77
2022/02/20 12:00:58;;;;;;;;;0.00;0.00;;;;;;;;2;288086532;288086532;-80
2022/02/20 12:09:24;;;;;;;;;0.00;0.00;;;;;;;;2;261076505;261076505;-77
2022/02/20 12:19:08;;;;;;;;;0.00;0.00;;;;;;;;2;288086616;288086616;-76
2022/02/20 12:27:27;;;;;;;;;0.00;0.00;;;;;;;;2;261076169;261076169;-78
2022/02/20 12:36:55;;;;;;;;;0.00;0.00;;;;;;;;2;288085742;288085742;-78
2022/02/20 12:45:13;;;;;;;;;0.00;0.00;;;;;;;;2;261075708;261075708;-79
2022/02/20 12:54:41;;;;;;;;;0.00;0.00;;;;;;;;2;288083430;288083430;-78
2022/02/20 13:02:57;;;;;;;;;0.00;0.00;;;;;;;;2;261075241;261075241;-79
2022/02/20 13:12:25;;;;;;;;;0.00;0.00;;;;;;;;2;288086561;288086561;-77
2022/02/20 13:20:43;;;;;;;;;0.00;0.00;;;;;;;;2;261077516;261077516;-79
2022/02/20 13:30:10;;;;;;;;;0.00;0.00;;;;;;;;2;288085530;288085530;-78
2022/02/20 13:38:27;;;;;;;;;0.00;0.00;;;;;;;;2;261079379;261079379;-80
2022/02/20 13:47:54;;;;;;;;;0.00;0.00;;;;;;;;2;288086874;288086874;-78
2022/02/20 13:56:18;;;;;;;;;0.00;0.00;;;;;;;;2;261074337;261074337;-78
2022/02/20 14:05:46;;;;;;;;;0.00;0.00;;;;;;;;2;288085605;288085605;-78
2022/02/20 14:14:14;;;;;;;;;0.00;0.00;;;;;;;;2;261076430;261076430;-79
2022/02/20 14:23:46;;;;;;;;;0.00;0.00;;;;;;;;2;288086036;288086036;-78
2022/02/20 14:32:03;;;;;;;;;0.00;0.00;;;;;;;;2;261074859;261074859;-79
2022/02/20 14:41:32;;;;;;;;;0.00;0.00;;;;;;;;2;288084058;288084058;-78
2022/02/20 14:49:47;;;;;;;;;0.00;0.00;;;;;;;;2;261074222;261074222;-78
2022/02/20 14:59:17;;;;;;;;;0.00;0.00;;;;;;;;2;288083805;288083805;-78
2022/02/20 15:07:34;;;;;;;;;0.00;0.00;;;;;;;;2;261075617;261075617;-78
2022/02/20 15:17:03;;;;;;;;;0.00;0.00;;;;;;;;2;288084182;288084182;-79
2022/02/20 15:25:20;;;;;;;;;0.00;0.00;;;;;;;;2;261076109;261076109;-78
2022/02/20 15:34:48;;;;;;;;;0.00;0.00;;;;;;;;2;288083083;288083083;-78
2022/02/20 15:43:04;;;;;;;;;0.00;0.00;;;;;;;;2;261077346;261077346;-78
2022/02/20 15:52:31;;;;;;;;;0.00;0.00;;;;;;;;2;288082691;288082691;-78
2022/02/20 16:00:47;;;;;;;;;0.00;0.00;;;;;;;;2;261077732;261077732;-79
2022/02/20 16:10:15;;;;;;;;;0.00;0.00;;;;;;;;2;288083322;288083322;-80
2022/02/20 16:18:31;;;;;;;;;0.00;0.00;;;;;;;;2;261075723;261075723;-79
2022/02/20 16:27:58;;;;;;;;;0.00;0.00;;;;;;;;2;288083534;288083534;-80
2022/02/20 16:36:14;;;;;;;;;0.00;0.00;;;;;;;;2;261074339;261074339;-80
2022/02/20 16:45:43;;;;;;;;;0.00;0.00;;;;;;;;2;288083835;288083835;-79
2022/02/20 16:53:59;;;;;;;;;0.00;0.00;;;;;;;;2;261075574;261075574;-80
2022/02/20 17:03:27;;;;;;;;;0.00;0.00;;;;;;;;2;288082402;288082402;-78
2022/02/20 17:11:43;;;;;;;;;0.00;0.00;;;;;;;;2;261073078;261073078;-78
2022/02/20 17:21:10;;;;;;;;;0.00;0.00;;;;;;;;2;288082595;288082595;-81
2022/02/20 17:29:26;;;;;;;;;0.00;0.00;;;;;;;;2;261074377;261074377;-76
2022/02/20 17:38:54;;;;;;;;;0.00;0.00;;;;;;;;2;288085014;288085014;-76
2022/02/20 17:47:09;;;;;;;;;0.00;0.00;;;;;;;;2;261074591;261074591;-77
2022/02/20 17:56:37;;;;;;;;;0.00;0.00;;;;;;;;2;288082941;288082941;-76
2022/02/20 18:04:53;;;;;;;;;0.00;0.00;;;;;;;;2;261075395;261075395;-78
2022/02/20 18:14:21;;;;;;;;;0.00;0.00;;;;;;;;2;288087432;288087432;-78
2022/02/20 18:22:37;;;;;;;;;0.00;0.00;;;;;;;;2;261077965;261077965;-77
2022/02/20 18:32:05;;;;;;;;;0.00;0.00;;;;;;;;2;288091144;288091144;-77
2022/02/20 18:40:21;;;;;;;;;0.00;0.00;;;;;;;;2;261076591;261076591;-76
2022/02/20 18:49:52;;;;;;;;;0.00;0.00;;;;;;;;2;288084711;288084711;-78
2022/02/20 18:58:08;;;;;;;;;0.00;0.00;;;;;;;;2;261077035;261077035;-79
2022/02/20 19:07:36;;;;;;;;;0.00;0.00;;;;;;;;2;288084515;288084515;-78
2022/02/20 19:15:52;;;;;;;;;0.00;0.00;;;;;;;;2;261075386;261075386;-81
2022/02/20 19:25:19;;;;;;;;;0.00;0.00;;;;;;;;2;288083422;288083422;-81
2022/02/20 19:33:35;;;;;;;;;0.00;0.00;;;;;;;;2;261075336;261075336;-79
2022/02/20 19:43:03;;;;;;;;;0.00;0.00;;;;;;;;2;288085457;288085457;-77
2022/02/20 19:51:18;;;;;;;;;0.00;0.00;;;;;;;;2;261076927;261076927;-78
2022/02/20 20:00:46;;;;;;;;;0.00;0.00;;;;;;;;2;288082800;288082800;-78
2022/02/20 20:09:02;;;;;;;;;0.00;0.00;;;;;;;;2;261076222;261076222;-81
2022/02/20 20:18:29;;;;;;;;;0.00;0.00;;;;;;;;2;288083578;288083578;-81
2022/02/20 20:26:46;;;;;;;;;0.00;0.00;;;;;;;;2;261077492;261077492;-80
2022/02/20 20:36:13;;;;;;;;;0.00;0.00;;;;;;;;2;288082494;288082494;-79
2022/02/20 20:44:29;;;;;;;;;0.00;0.00;;;;;;;;2;261076355;261076355;-80
2022/02/20 20:53:58;;;;;;;;;0.00;0.00;;;;;;;;2;288082618;288082618;-77
2022/02/20 21:02:13;;;;;;;;;0.00;0.00;;;;;;;;2;261079023;261079023;-80
2022/02/20 21:11:41;;;;;;;;;0.00;0.00;;;;;;;;2;288083300;288083300;-81
2022/02/20 21:19:56;;;;;;;;;0.00;0.00;;;;;;;;2;261080013;261080013;-80
2022/02/20 21:29:24;;;;;;;;;0.00;0.00;;;;;;;;2;288088227;288088227;-79
2022/02/20 21:37:40;;;;;;;;;0.00;0.00;;;;;;;;2;261077122;261077122;-77
2022/02/20 21:47:07;;;;;;;;;0.00;0.00;;;;;;;;2;288085667;288085667;-76
2022/02/20 21:55:23;;;;;;;;;0.00;0.00;;;;;;;;2;261078588;261078588;-80
2022/02/20 22:04:50;;;;;;;;;0.00;0.00;;;;;;;;2;288088164;288088164;-76
2022/02/20 22:13:06;;;;;;;;;0.00;0.00;;;;;;;;2;261076865;261076865;-77
2022/02/20 22:22:33;;;;;;;;;0.00;0.00;;;;;;;;2;288083915;288083915;-75
2022/02/20 22:30:49;;;;;;;;;0.00;0.00;;;;;;;;2;261077998;261077998;-78
2022/02/20 22:40:16;;;;;;;;;0.00;0.00;;;;;;;;2;288083641;288083641;-77
2022/02/20 22:48:32;;;;;;;;;0.00;0.00;;;;;;;;2;261075557;261075557;-77
2022/02/20 22:57:59;;;;;;;;;0.00;0.00;;;;;;;;2;288082389;288082389;-77
2022/02/20 23:06:15;;;;;;;;;0.00;0.00;;;;;;;;2;261077504;261077504;-79
2022/02/20 23:15:42;;;;;;;;;0.00;0.00;;;;;;;;2;288084116;288084116;-76
2022/02/20 23:23:58;;;;;;;;;0.00;0.00;;;;;;;;2;261076225;261076225;-76
2022/02/20 23:33:27;;;;;;;;;0.00;0.00;;;;;;;;2;288084816;288084816;-76
2022/02/20 23:41:44;;;;;;;;;0.00;0.00;;;;;;;;2;261078038;261078038;-76
2022/02/20 23:51:12;;;;;;;;;0.00;0.00;;;;;;;;2;288085657;288085657;-76
2022/02/20 23:59:27;;;;;;;;;0.00;0.00;;;;;;;;2;261076686;261076686;-76
